KOKM

Okmulgee Regional Airport

Okmulgee, Oklahoma, USA
METAR KOKM 230455Z AUTO 00000KT 10SM CLR 09/09 A3022 RMK AO2 T00900090
Observed Flight Rules
Oct-23 @ 04:55 UTC (22 minutes ago) Visual Flight Rules
Visibility Clouds
10 miles
  • Clear skies
Temperatures Readings
Current 9°C / 48°F
Dewpoint 9°C / 48°F
Humidity 100%
Altimeter 30.22" Hg
Pressure 1023 hPa
Elevation 220
METAR KOKM 230455Z AUTO 00000KT 10SM CLR 09/09 A3022 RMK AO2 T00900090
Observed Flight Rules
Oct-23 @ 04:55 UTC
(22 minutes ago)
VFR
Clouds
  • Clear skies
Temperature Dewpoint
9°C / 48°F 9°C / 48°F
Humidity Altimeter Pressure
100% 30.22" Hg 1023 hPa